sensor_id;sensor_type;location;lat;lon;timestamp;temperature;humidity
66594;DHT22;53450;42.584;23.366;2023-02-15T00:01:29;-1.30;77.25
66594;DHT22;53450;42.584;23.366;2023-02-15T00:03:55;-1.26;76.42
66594;DHT22;53450;42.584;23.366;2023-02-15T00:06:21;-1.28;76.39
66594;DHT22;53450;42.584;23.366;2023-02-15T00:08:47;-1.36;76.67
66594;DHT22;53450;42.584;23.366;2023-02-15T00:11:18;-1.51;77.14
66594;DHT22;53450;42.584;23.366;2023-02-15T00:14:15;-1.61;77.53
66594;DHT22;53450;42.584;23.366;2023-02-15T00:17:06;-1.75;78.02
66594;DHT22;53450;42.584;23.366;2023-02-15T00:19:56;-1.72;78.12
66594;DHT22;53450;42.584;23.366;2023-02-15T00:22:22;-1.89;78.34
66594;DHT22;53450;42.584;23.366;2023-02-15T00:24:47;-1.80;78.28
66594;DHT22;53450;42.584;23.366;2023-02-15T00:27:13;-1.80;78.21
66594;DHT22;53450;42.584;23.366;2023-02-15T00:29:39;-1.91;78.35
66594;DHT22;53450;42.584;23.366;2023-02-15T00:32:04;-1.88;78.20
66594;DHT22;53450;42.584;23.366;2023-02-15T00:34:31;-1.98;78.19
66594;DHT22;53450;42.584;23.366;2023-02-15T00:36:56;-2.06;78.82
66594;DHT22;53450;42.584;23.366;2023-02-15T00:39:22;-2.15;79.41
66594;DHT22;53450;42.584;23.366;2023-02-15T00:41:49;-2.03;79.09
66594;DHT22;53450;42.584;23.366;2023-02-15T00:44:14;-2.01;79.71
66594;DHT22;53450;42.584;23.366;2023-02-15T00:46:40;-1.92;78.65
66594;DHT22;53450;42.584;23.366;2023-02-15T00:49:08;-2.05;78.77
66594;DHT22;53450;42.584;23.366;2023-02-15T00:51:34;-2.08;78.81
66594;DHT22;53450;42.584;23.366;2023-02-15T00:53:59;-2.16;78.88
66594;DHT22;53450;42.584;23.366;2023-02-15T00:56:25;-2.19;79.03
66594;DHT22;53450;42.584;23.366;2023-02-15T00:58:53;-2.22;78.79
66594;DHT22;53450;42.584;23.366;2023-02-15T01:01:20;-2.32;78.79
66594;DHT22;53450;42.584;23.366;2023-02-15T01:03:46;-2.32;78.75
66594;DHT22;53450;42.584;23.366;2023-02-15T01:06:16;-2.32;78.12
66594;DHT22;53450;42.584;23.366;2023-02-15T01:08:43;-2.33;78.26
66594;DHT22;53450;42.584;23.366;2023-02-15T01:11:11;-2.43;79.05
66594;DHT22;53450;42.584;23.366;2023-02-15T01:13:37;-2.45;79.60
66594;DHT22;53450;42.584;23.366;2023-02-15T01:16:04;-2.43;80.84
66594;DHT22;53450;42.584;23.366;2023-02-15T01:18:31;-2.23;79.99
66594;DHT22;53450;42.584;23.366;2023-02-15T01:20:56;-1.82;82.99
66594;DHT22;53450;42.584;23.366;2023-02-15T01:23:22;-1.51;83.52
66594;DHT22;53450;42.584;23.366;2023-02-15T01:25:48;-1.46;82.24
66594;DHT22;53450;42.584;23.366;2023-02-15T01:28:13;-1.33;82.86
66594;DHT22;53450;42.584;23.366;2023-02-15T01:30:39;-1.29;82.71
66594;DHT22;53450;42.584;23.366;2023-02-15T01:33:05;-1.15;82.57
66594;DHT22;53450;42.584;23.366;2023-02-15T01:35:31;-1.02;82.59
66594;DHT22;53450;42.584;23.366;2023-02-15T01:37:56;-0.98;82.47
66594;DHT22;53450;42.584;23.366;2023-02-15T01:40:23;-0.93;82.46
66594;DHT22;53450;42.584;23.366;2023-02-15T01:42:53;-0.91;82.37
66594;DHT22;53450;42.584;23.366;2023-02-15T01:48:20;-0.85;82.19
66594;DHT22;53450;42.584;23.366;2023-02-15T01:51:08;-0.88;82.40
66594;DHT22;53450;42.584;23.366;2023-02-15T01:54:09;-0.79;82.16
66594;DHT22;53450;42.584;23.366;2023-02-15T01:56:36;-0.81;82.29
66594;DHT22;53450;42.584;23.366;2023-02-15T01:59:06;-0.87;82.29
66594;DHT22;53450;42.584;23.366;2023-02-15T02:01:33;-0.85;82.46
66594;DHT22;53450;42.584;23.366;2023-02-15T02:06:29;-0.81;82.34
66594;DHT22;53450;42.584;23.366;2023-02-15T02:08:55;-0.79;82.44
66594;DHT22;53450;42.584;23.366;2023-02-15T02:11:47;-0.87;82.47
66594;DHT22;53450;42.584;23.366;2023-02-15T02:14:20;-0.81;82.50
66594;DHT22;53450;42.584;23.366;2023-02-15T02:16:57;-0.93;82.20
66594;DHT22;53450;42.584;23.366;2023-02-15T02:19:32;-0.88;82.44
66594;DHT22;53450;42.584;23.366;2023-02-15T02:22:29;-1.05;81.34
66594;DHT22;53450;42.584;23.366;2023-02-15T02:36:27;-0.92;82.70
66594;DHT22;53450;42.584;23.366;2023-02-15T02:39:06;-1.06;81.39
66594;DHT22;53450;42.584;23.366;2023-02-15T02:44:23;-1.53;79.54
66594;DHT22;53450;42.584;23.366;2023-02-15T02:46:58;-1.36;80.65
66594;DHT22;53450;42.584;23.366;2023-02-15T02:52:01;-1.03;82.89
66594;DHT22;53450;42.584;23.366;2023-02-15T02:54:28;-0.95;82.69
66594;DHT22;53450;42.584;23.366;2023-02-15T02:56:59;-0.85;82.62
66594;DHT22;53450;42.584;23.366;2023-02-15T02:59:33;-0.77;82.57
66594;DHT22;53450;42.584;23.366;2023-02-15T03:02:12;-0.71;82.40
66594;DHT22;53450;42.584;23.366;2023-02-15T03:04:42;-0.68;82.37
66594;DHT22;53450;42.584;23.366;2023-02-15T03:07:17;-0.72;82.32
66594;DHT22;53450;42.584;23.366;2023-02-15T03:09:52;-0.64;82.46
66594;DHT22;53450;42.584;23.366;2023-02-15T03:12:24;-0.68;82.56
66594;DHT22;53450;42.584;23.366;2023-02-15T03:15:23;-0.71;82.82
66594;DHT22;53450;42.584;23.366;2023-02-15T03:17:55;-0.70;83.05
66594;DHT22;53450;42.584;23.366;2023-02-15T03:20:29;-0.57;82.87
66594;DHT22;53450;42.584;23.366;2023-02-15T03:23:01;-0.62;82.77
66594;DHT22;53450;42.584;23.366;2023-02-15T03:26:00;-0.62;82.96
66594;DHT22;53450;42.584;23.366;2023-02-15T03:28:40;-0.56;82.87
66594;DHT22;53450;42.584;23.366;2023-02-15T03:31:08;-0.61;82.80
66594;DHT22;53450;42.584;23.366;2023-02-15T03:33:37;-0.62;82.79
66594;DHT22;53450;42.584;23.366;2023-02-15T03:36:29;-0.54;82.69
66594;DHT22;53450;42.584;23.366;2023-02-15T03:39:07;-0.54;82.58
66594;DHT22;53450;42.584;23.366;2023-02-15T03:41:41;-0.57;82.60
66594;DHT22;53450;42.584;23.366;2023-02-15T03:44:30;-0.57;82.63
66594;DHT22;53450;42.584;23.366;2023-02-15T03:47:02;-0.51;82.60
66594;DHT22;53450;42.584;23.366;2023-02-15T03:49:37;-0.54;82.46
66594;DHT22;53450;42.584;23.366;2023-02-15T03:52:06;-0.50;82.56
66594;DHT22;53450;42.584;23.366;2023-02-15T03:54:34;-0.44;82.45
66594;DHT22;53450;42.584;23.366;2023-02-15T03:57:22;-0.47;82.44
66594;DHT22;53450;42.584;23.366;2023-02-15T04:06:15;-0.54;82.04
66594;DHT22;53450;42.584;23.366;2023-02-15T04:08:41;-0.53;82.41
66594;DHT22;53450;42.584;23.366;2023-02-15T04:11:25;-0.49;82.06
66594;DHT22;53450;42.584;23.366;2023-02-15T04:13:50;-0.53;81.44
66594;DHT22;53450;42.584;23.366;2023-02-15T04:16:22;-0.68;80.99
66594;DHT22;53450;42.584;23.366;2023-02-15T04:18:48;-0.71;79.47
66594;DHT22;53450;42.584;23.366;2023-02-15T04:21:32;-0.62;79.94
66594;DHT22;53450;42.584;23.366;2023-02-15T04:24:17;-0.74;80.33
66594;DHT22;53450;42.584;23.366;2023-02-15T04:27:02;-0.64;79.75
66594;DHT22;53450;42.584;23.366;2023-02-15T04:29:29;-0.68;78.56
66594;DHT22;53450;42.584;23.366;2023-02-15T04:31:56;-0.78;79.65
66594;DHT22;53450;42.584;23.366;2023-02-15T04:34:22;-0.61;82.04
66594;DHT22;53450;42.584;23.366;2023-02-15T04:36:48;-0.53;82.11
66594;DHT22;53450;42.584;23.366;2023-02-15T04:39:14;-0.53;81.64
66594;DHT22;53450;42.584;23.366;2023-02-15T04:41:40;-0.54;82.00
66594;DHT22;53450;42.584;23.366;2023-02-15T04:44:06;-0.51;83.18
66594;DHT22;53450;42.584;23.366;2023-02-15T04:46:31;-0.49;83.69
66594;DHT22;53450;42.584;23.366;2023-02-15T04:48:57;-0.47;83.48
66594;DHT22;53450;42.584;23.366;2023-02-15T04:51:23;-0.60;83.84
66594;DHT22;53450;42.584;23.366;2023-02-15T04:55:18;-0.47;83.43
66594;DHT22;53450;42.584;23.366;2023-02-15T04:57:43;-0.51;83.31
66594;DHT22;53450;42.584;23.366;2023-02-15T05:00:09;-0.51;83.14
66594;DHT22;53450;42.584;23.366;2023-02-15T05:03:17;-0.53;83.02
66594;DHT22;53450;42.584;23.366;2023-02-15T05:05:43;-0.60;82.89
66594;DHT22;53450;42.584;23.366;2023-02-15T05:08:08;-0.75;81.16
66594;DHT22;53450;42.584;23.366;2023-02-15T05:10:57;-0.77;80.55
66594;DHT22;53450;42.584;23.366;2023-02-15T05:13:23;-0.71;80.78
66594;DHT22;53450;42.584;23.366;2023-02-15T05:15:52;-0.82;79.33
66594;DHT22;53450;42.584;23.366;2023-02-15T05:18:19;-0.84;78.78
66594;DHT22;53450;42.584;23.366;2023-02-15T05:20:45;-0.93;79.95
66594;DHT22;53450;42.584;23.366;2023-02-15T05:23:11;-0.96;81.17
66594;DHT22;53450;42.584;23.366;2023-02-15T05:25:36;-0.93;80.07
66594;DHT22;53450;42.584;23.366;2023-02-15T05:28:22;-0.87;81.64
66594;DHT22;53450;42.584;23.366;2023-02-15T05:30:50;-0.92;81.16
66594;DHT22;53450;42.584;23.366;2023-02-15T05:33:41;-0.91;80.96
66594;DHT22;53450;42.584;23.366;2023-02-15T05:36:07;-1.05;80.89
66594;DHT22;53450;42.584;23.366;2023-02-15T05:38:33;-0.95;80.73
66594;DHT22;53450;42.584;23.366;2023-02-15T05:41:03;-0.93;81.88
66594;DHT22;53450;42.584;23.366;2023-02-15T05:43:30;-1.05;81.15
66594;DHT22;53450;42.584;23.366;2023-02-15T05:45:55;-0.96;82.75
66594;DHT22;53450;42.584;23.366;2023-02-15T05:48:23;-0.93;82.29
66594;DHT22;53450;42.584;23.366;2023-02-15T05:51:07;-0.93;81.59
66594;DHT22;53450;42.584;23.366;2023-02-15T05:53:37;-1.05;81.61
66594;DHT22;53450;42.584;23.366;2023-02-15T05:56:04;-1.01;81.74
66594;DHT22;53450;42.584;23.366;2023-02-15T05:58:35;-0.98;81.30
66594;DHT22;53450;42.584;23.366;2023-02-15T06:01:09;-0.91;80.52
66594;DHT22;53450;42.584;23.366;2023-02-15T06:03:35;-0.82;80.35
66594;DHT22;53450;42.584;23.366;2023-02-15T06:06:00;-0.84;80.41
66594;DHT22;53450;42.584;23.366;2023-02-15T06:08:27;-0.77;80.21
66594;DHT22;53450;42.584;23.366;2023-02-15T06:11:17;-0.81;80.20
66594;DHT22;53450;42.584;23.366;2023-02-15T06:13:43;-0.65;80.03
66594;DHT22;53450;42.584;23.366;2023-02-15T06:16:08;-0.58;79.45
66594;DHT22;53450;42.584;23.366;2023-02-15T06:18:34;-0.54;78.88
66594;DHT22;53450;42.584;23.366;2023-02-15T06:21:00;-0.43;77.98
66594;DHT22;53450;42.584;23.366;2023-02-15T06:23:25;-0.38;78.26
66594;DHT22;53450;42.584;23.366;2023-02-15T06:25:51;-0.54;79.10
66594;DHT22;53450;42.584;23.366;2023-02-15T06:28:16;-0.44;78.88
66594;DHT22;53450;42.584;23.366;2023-02-15T06:30:42;-0.49;78.20
66594;DHT22;53450;42.584;23.366;2023-02-15T06:33:07;-0.40;78.01
66594;DHT22;53450;42.584;23.366;2023-02-15T06:35:33;-0.31;77.91
66594;DHT22;53450;42.584;23.366;2023-02-15T06:37:58;-0.26;78.41
66594;DHT22;53450;42.584;23.366;2023-02-15T06:40:24;-0.31;77.96
66594;DHT22;53450;42.584;23.366;2023-02-15T06:42:49;-0.13;78.24
66594;DHT22;53450;42.584;23.366;2023-02-15T06:45:15;-0.33;77.62
66594;DHT22;53450;42.584;23.366;2023-02-15T06:47:41;-0.26;77.51
66594;DHT22;53450;42.584;23.366;2023-02-15T06:50:07;-0.37;77.75
66594;DHT22;53450;42.584;23.366;2023-02-15T06:52:33;-0.30;77.31
66594;DHT22;53450;42.584;23.366;2023-02-15T06:54:58;-0.13;76.84
66594;DHT22;53450;42.584;23.366;2023-02-15T06:57:24;-0.09;75.70
66594;DHT22;53450;42.584;23.366;2023-02-15T06:59:50;-0.17;75.99
66594;DHT22;53450;42.584;23.366;2023-02-15T07:02:15;-0.36;77.65
66594;DHT22;53450;42.584;23.366;2023-02-15T07:04:41;-0.23;76.73
66594;DHT22;53450;42.584;23.366;2023-02-15T07:07:11;-0.26;78.11
66594;DHT22;53450;42.584;23.366;2023-02-15T07:09:37;-0.12;78.38
66594;DHT22;53450;42.584;23.366;2023-02-15T07:12:28;-0.05;77.55
66594;DHT22;53450;42.584;23.366;2023-02-15T07:15:16;-0.06;78.03
66594;DHT22;53450;42.584;23.366;2023-02-15T07:17:43;0.12;77.41
66594;DHT22;53450;42.584;23.366;2023-02-15T07:20:10;0.08;77.45
66594;DHT22;53450;42.584;23.366;2023-02-15T07:22:36;0.08;78.11
66594;DHT22;53450;42.584;23.366;2023-02-15T07:25:03;0.35;77.15
66594;DHT22;53450;42.584;23.366;2023-02-15T07:27:30;0.41;77.91
66594;DHT22;53450;42.584;23.366;2023-02-15T07:29:56;0.45;78.90
66594;DHT22;53450;42.584;23.366;2023-02-15T07:32:21;0.56;78.89
66594;DHT22;53450;42.584;23.366;2023-02-15T07:34:47;0.59;78.04
66594;DHT22;53450;42.584;23.366;2023-02-15T07:37:12;0.67;77.70
66594;DHT22;53450;42.584;23.366;2023-02-15T07:39:38;0.62;77.11
66594;DHT22;53450;42.584;23.366;2023-02-15T07:42:03;0.72;77.52
66594;DHT22;53450;42.584;23.366;2023-02-15T07:44:30;0.67;77.61
66594;DHT22;53450;42.584;23.366;2023-02-15T07:46:55;0.81;76.99
66594;DHT22;53450;42.584;23.366;2023-02-15T07:49:21;0.90;77.15
66594;DHT22;53450;42.584;23.366;2023-02-15T07:51:47;0.96;76.97
66594;DHT22;53450;42.584;23.366;2023-02-15T07:54:12;0.84;76.50
66594;DHT22;53450;42.584;23.366;2023-02-15T07:56:38;0.83;76.51
66594;DHT22;53450;42.584;23.366;2023-02-15T07:59:03;0.94;76.69
66594;DHT22;53450;42.584;23.366;2023-02-15T08:01:37;0.96;76.46
66594;DHT22;53450;42.584;23.366;2023-02-15T08:04:05;0.90;76.41
66594;DHT22;53450;42.584;23.366;2023-02-15T08:06:34;0.93;76.44
66594;DHT22;53450;42.584;23.366;2023-02-15T08:09:00;0.93;76.29
66594;DHT22;53450;42.584;23.366;2023-02-15T08:11:29;1.03;76.61
66594;DHT22;53450;42.584;23.366;2023-02-15T08:14:16;1.18;75.73
66594;DHT22;53450;42.584;23.366;2023-02-15T08:16:53;1.14;75.57
66594;DHT22;53450;42.584;23.366;2023-02-15T08:19:29;1.30;75.74
66594;DHT22;53450;42.584;23.366;2023-02-15T08:21:59;1.34;75.37
66594;DHT22;53450;42.584;23.366;2023-02-15T08:24:31;1.34;75.31
66594;DHT22;53450;42.584;23.366;2023-02-15T08:27:22;1.45;75.28
66594;DHT22;53450;42.584;23.366;2023-02-15T08:29:51;1.41;75.25
66594;DHT22;53450;42.584;23.366;2023-02-15T08:32:17;1.62;74.78
66594;DHT22;53450;42.584;23.366;2023-02-15T08:34:43;1.63;74.69
66594;DHT22;53450;42.584;23.366;2023-02-15T08:37:08;1.58;74.86
66594;DHT22;53450;42.584;23.366;2023-02-15T08:39:34;1.54;75.16
66594;DHT22;53450;42.584;23.366;2023-02-15T08:42:00;1.52;75.44
66594;DHT22;53450;42.584;23.366;2023-02-15T08:44:25;1.70;75.33
66594;DHT22;53450;42.584;23.366;2023-02-15T08:46:51;1.77;75.06
66594;DHT22;53450;42.584;23.366;2023-02-15T08:49:21;1.89;74.61
66594;DHT22;53450;42.584;23.366;2023-02-15T08:51:47;1.89;74.31
66594;DHT22;53450;42.584;23.366;2023-02-15T08:54:15;1.89;73.80
66594;DHT22;53450;42.584;23.366;2023-02-15T08:56:43;1.89;73.93
66594;DHT22;53450;42.584;23.366;2023-02-15T08:59:27;1.76;74.04
66594;DHT22;53450;42.584;23.366;2023-02-15T09:01:53;1.83;74.20
66594;DHT22;53450;42.584;23.366;2023-02-15T09:04:20;1.93;73.29
66594;DHT22;53450;42.584;23.366;2023-02-15T09:06:47;1.95;73.48
66594;DHT22;53450;42.584;23.366;2023-02-15T09:09:13;1.97;73.60
66594;DHT22;53450;42.584;23.366;2023-02-15T09:11:41;2.07;73.10
66594;DHT22;53450;42.584;23.366;2023-02-15T09:14:10;2.07;73.10
66594;DHT22;53450;42.584;23.366;2023-02-15T09:16:37;1.99;72.47
66594;DHT22;53450;42.584;23.366;2023-02-15T09:19:04;2.06;73.08
66594;DHT22;53450;42.584;23.366;2023-02-15T09:21:31;2.14;72.61
66594;DHT22;53450;42.584;23.366;2023-02-15T09:23:59;2.18;72.55
66594;DHT22;53450;42.584;23.366;2023-02-15T09:26:26;2.26;72.14
66594;DHT22;53450;42.584;23.366;2023-02-15T09:28:55;2.38;71.92
66594;DHT22;53450;42.584;23.366;2023-02-15T09:31:26;2.35;72.21
66594;DHT22;53450;42.584;23.366;2023-02-15T09:33:53;2.42;72.03
66594;DHT22;53450;42.584;23.366;2023-02-15T09:36:33;2.54;71.68
66594;DHT22;53450;42.584;23.366;2023-02-15T09:39:09;2.64;71.57
66594;DHT22;53450;42.584;23.366;2023-02-15T09:50:21;2.57;71.45
66594;DHT22;53450;42.584;23.366;2023-02-15T09:56:06;2.62;72.04
66594;DHT22;53450;42.584;23.366;2023-02-15T10:15:18;2.84;70.76
66594;DHT22;53450;42.584;23.366;2023-02-15T10:18:04;2.89;71.06
66594;DHT22;53450;42.584;23.366;2023-02-15T10:20:49;2.85;70.95
66594;DHT22;53450;42.584;23.366;2023-02-15T10:23:30;2.97;70.62
66594;DHT22;53450;42.584;23.366;2023-02-15T10:26:21;3.12;70.04
66594;DHT22;53450;42.584;23.366;2023-02-15T10:28:55;3.15;70.24
66594;DHT22;53450;42.584;23.366;2023-02-15T10:33:42;2.97;70.54
66594;DHT22;53450;42.584;23.366;2023-02-15T10:37:04;3.00;69.90
66594;DHT22;53450;42.584;23.366;2023-02-15T10:40:00;3.22;69.84
66594;DHT22;53450;42.584;23.366;2023-02-15T10:45:34;3.55;68.50
66594;DHT22;53450;42.584;23.366;2023-02-15T10:50:57;3.65;67.91
66594;DHT22;53450;42.584;23.366;2023-02-15T10:56:13;3.55;68.93
66594;DHT22;53450;42.584;23.366;2023-02-15T10:59:06;3.75;68.37
66594;DHT22;53450;42.584;23.366;2023-02-15T11:06:53;3.63;68.10
66594;DHT22;53450;42.584;23.366;2023-02-15T11:09:22;3.75;68.55
66594;DHT22;53450;42.584;23.366;2023-02-15T11:11:51;3.55;68.82
66594;DHT22;53450;42.584;23.366;2023-02-15T11:14:27;3.47;69.07
66594;DHT22;53450;42.584;23.366;2023-02-15T11:17:01;3.60;68.52
66594;DHT22;53450;42.584;23.366;2023-02-15T11:19:35;3.68;68.40
66594;DHT22;53450;42.584;23.366;2023-02-15T11:22:04;3.92;68.31
66594;DHT22;53450;42.584;23.366;2023-02-15T11:24:38;3.99;67.83
66594;DHT22;53450;42.584;23.366;2023-02-15T11:27:05;4.13;67.79
66594;DHT22;53450;42.584;23.366;2023-02-15T11:29:34;4.01;67.57
66594;DHT22;53450;42.584;23.366;2023-02-15T11:32:11;3.65;68.89
66594;DHT22;53450;42.584;23.366;2023-02-15T11:34:44;3.75;68.57
66594;DHT22;53450;42.584;23.366;2023-02-15T11:37:16;3.82;68.83
66594;DHT22;53450;42.584;23.366;2023-02-15T11:39:42;4.10;67.72
66594;DHT22;53450;42.584;23.366;2023-02-15T11:42:14;4.06;67.43
66594;DHT22;53450;42.584;23.366;2023-02-15T11:44:56;4.05;67.90
66594;DHT22;53450;42.584;23.366;2023-02-15T11:47:24;3.94;68.01
66594;DHT22;53450;42.584;23.366;2023-02-15T11:49:49;3.75;68.60
66594;DHT22;53450;42.584;23.366;2023-02-15T11:52:16;3.71;69.19
66594;DHT22;53450;42.584;23.366;2023-02-15T11:54:45;3.92;68.75
66594;DHT22;53450;42.584;23.366;2023-02-15T12:02:52;3.96;68.24
66594;DHT22;53450;42.584;23.366;2023-02-15T12:05:21;4.05;67.93
66594;DHT22;53450;42.584;23.366;2023-02-15T12:08:01;4.02;67.89
66594;DHT22;53450;42.584;23.366;2023-02-15T12:10:36;3.88;68.46
66594;DHT22;53450;42.584;23.366;2023-02-15T12:13:17;3.91;68.29
66594;DHT22;53450;42.584;23.366;2023-02-15T12:15:50;3.88;68.35
66594;DHT22;53450;42.584;23.366;2023-02-15T12:18:21;3.98;67.68
66594;DHT22;53450;42.584;23.366;2023-02-15T12:20:50;3.92;68.26
66594;DHT22;53450;42.584;23.366;2023-02-15T12:23:17;3.84;67.95
66594;DHT22;53450;42.584;23.366;2023-02-15T12:25:53;3.95;68.25
66594;DHT22;53450;42.584;23.366;2023-02-15T12:30:50;3.94;68.00
66594;DHT22;53450;42.584;23.366;2023-02-15T12:33:27;3.98;67.86
66594;DHT22;53450;42.584;23.366;2023-02-15T12:38:29;3.92;67.62
66594;DHT22;53450;42.584;23.366;2023-02-15T12:41:26;3.95;68.35
66594;DHT22;53450;42.584;23.366;2023-02-15T12:49:21;3.98;68.04
66594;DHT22;53450;42.584;23.366;2023-02-15T12:51:57;4.19;67.58
66594;DHT22;53450;42.584;23.366;2023-02-15T12:56:50;4.26;67.19
66594;DHT22;53450;42.584;23.366;2023-02-15T12:59:18;4.25;67.39
66594;DHT22;53450;42.584;23.366;2023-02-15T13:01:47;4.32;66.66
66594;DHT22;53450;42.584;23.366;2023-02-15T13:04:29;4.33;66.58
66594;DHT22;53450;42.584;23.366;2023-02-15T13:06:58;4.16;66.95
66594;DHT22;53450;42.584;23.366;2023-02-15T13:12:23;4.15;67.46
66594;DHT22;53450;42.584;23.366;2023-02-15T13:15:26;4.17;67.83
66594;DHT22;53450;42.584;23.366;2023-02-15T13:17:57;4.19;67.67
66594;DHT22;53450;42.584;23.366;2023-02-15T13:20:24;4.16;68.00
66594;DHT22;53450;42.584;23.366;2023-02-15T13:22:59;4.23;67.81
66594;DHT22;53450;42.584;23.366;2023-02-15T13:25:29;4.20;67.37
66594;DHT22;53450;42.584;23.366;2023-02-15T13:28:02;4.30;67.26
66594;DHT22;53450;42.584;23.366;2023-02-15T13:30:34;4.17;67.36
66594;DHT22;53450;42.584;23.366;2023-02-15T13:36:08;4.29;67.10
66594;DHT22;53450;42.584;23.366;2023-02-15T13:41:12;4.32;67.11
66594;DHT22;53450;42.584;23.366;2023-02-15T13:52:23;4.06;68.09
66594;DHT22;53450;42.584;23.366;2023-02-15T13:57:47;3.84;68.74
66594;DHT22;53450;42.584;23.366;2023-02-15T14:06:16;3.85;69.15
66594;DHT22;53450;42.584;23.366;2023-02-15T14:11:32;3.81;69.27
66594;DHT22;53450;42.584;23.366;2023-02-15T14:17:22;3.85;69.09
66594;DHT22;53450;42.584;23.366;2023-02-15T14:19:51;3.88;68.93
66594;DHT22;53450;42.584;23.366;2023-02-15T14:22:41;3.85;68.98
66594;DHT22;53450;42.584;23.366;2023-02-15T14:28:16;3.88;69.25
66594;DHT22;53450;42.584;23.366;2023-02-15T14:31:12;3.82;69.64
66594;DHT22;53450;42.584;23.366;2023-02-15T14:33:54;3.68;69.92
66594;DHT22;53450;42.584;23.366;2023-02-15T14:36:20;3.65;70.38
66594;DHT22;53450;42.584;23.366;2023-02-15T14:38:59;3.60;70.48
66594;DHT22;53450;42.584;23.366;2023-02-15T14:42:12;3.41;70.94
66594;DHT22;53450;42.584;23.366;2023-02-15T14:45:12;3.41;71.29
66594;DHT22;53450;42.584;23.366;2023-02-15T14:47:41;3.43;71.01
66594;DHT22;53450;42.584;23.366;2023-02-15T14:50:44;3.34;71.35
66594;DHT22;53450;42.584;23.366;2023-02-15T14:53:32;3.40;71.48
66594;DHT22;53450;42.584;23.366;2023-02-15T14:58:38;3.26;71.75
66594;DHT22;53450;42.584;23.366;2023-02-15T15:03:54;3.07;72.11
66594;DHT22;53450;42.584;23.366;2023-02-15T15:06:28;2.92;72.65
66594;DHT22;53450;42.584;23.366;2023-02-15T15:09:12;2.88;73.00
66594;DHT22;53450;42.584;23.366;2023-02-15T15:11:45;2.84;73.14
66594;DHT22;53450;42.584;23.366;2023-02-15T15:17:03;2.68;73.44
66594;DHT22;53450;42.584;23.366;2023-02-15T15:22:23;2.68;73.70
66594;DHT22;53450;42.584;23.366;2023-02-15T15:38:21;2.35;73.74
66594;DHT22;53450;42.584;23.366;2023-02-15T15:41:17;2.37;72.98
66594;DHT22;53450;42.584;23.366;2023-02-15T15:49:20;1.83;74.75
66594;DHT22;53450;42.584;23.366;2023-02-15T15:51:47;1.62;75.57
66594;DHT22;53450;42.584;23.366;2023-02-15T15:54:21;1.49;76.00
66594;DHT22;53450;42.584;23.366;2023-02-15T15:56:59;1.31;76.42
66594;DHT22;53450;42.584;23.366;2023-02-15T15:59:35;1.20;76.74
66594;DHT22;53450;42.584;23.366;2023-02-15T16:02:11;1.11;77.02
66594;DHT22;53450;42.584;23.366;2023-02-15T16:04:38;0.93;77.64
66594;DHT22;53450;42.584;23.366;2023-02-15T16:10:03;0.66;78.52
66594;DHT22;53450;42.584;23.366;2023-02-15T16:12:32;0.55;78.64
66594;DHT22;53450;42.584;23.366;2023-02-15T16:15:02;0.42;79.17
66594;DHT22;53450;42.584;23.366;2023-02-15T16:17:32;0.41;79.20
66594;DHT22;53450;42.584;23.366;2023-02-15T16:20:03;0.30;79.53
66594;DHT22;53450;42.584;23.366;2023-02-15T16:22:32;0.46;79.86
66594;DHT22;53450;42.584;23.366;2023-02-15T16:25:27;0.52;79.32
66594;DHT22;53450;42.584;23.366;2023-02-15T16:27:55;0.56;78.53
66594;DHT22;53450;42.584;23.366;2023-02-15T16:30:24;0.52;78.57
66594;DHT22;53450;42.584;23.366;2023-02-15T16:33:13;0.39;79.38
66594;DHT22;53450;42.584;23.366;2023-02-15T16:35:53;0.25;79.66
66594;DHT22;53450;42.584;23.366;2023-02-15T16:41:15;0.07;80.09
66594;DHT22;53450;42.584;23.366;2023-02-15T16:43:43;0.07;80.19
66594;DHT22;53450;42.584;23.366;2023-02-15T16:46:31;0.02;80.57
66594;DHT22;53450;42.584;23.366;2023-02-15T16:49:07;-0.12;80.83
66594;DHT22;53450;42.584;23.366;2023-02-15T16:51:41;-0.16;81.15
66594;DHT22;53450;42.584;23.366;2023-02-15T16:54:18;-0.17;81.40
66594;DHT22;53450;42.584;23.366;2023-02-15T16:56:44;-0.21;81.50
66594;DHT22;53450;42.584;23.366;2023-02-15T16:59:38;-0.31;81.47
66594;DHT22;53450;42.584;23.366;2023-02-15T17:02:26;-0.36;81.95
66594;DHT22;53450;42.584;23.366;2023-02-15T17:05:15;-0.38;82.11
66594;DHT22;53450;42.584;23.366;2023-02-15T17:10:35;-0.37;81.71
66594;DHT22;53450;42.584;23.366;2023-02-15T17:13:15;-0.29;81.81
66594;DHT22;53450;42.584;23.366;2023-02-15T17:18:29;-0.23;81.18
66594;DHT22;53450;42.584;23.366;2023-02-15T17:20:57;-0.14;80.92
66594;DHT22;53450;42.584;23.366;2023-02-15T17:23:32;-0.10;79.98
66594;DHT22;53450;42.584;23.366;2023-02-15T17:26:00;-0.14;80.18
66594;DHT22;53450;42.584;23.366;2023-02-15T17:28:29;-0.19;80.40
66594;DHT22;53450;42.584;23.366;2023-02-15T17:30:56;-0.23;80.61
66594;DHT22;53450;42.584;23.366;2023-02-15T17:33:56;-0.29;80.87
66594;DHT22;53450;42.584;23.366;2023-02-15T17:36:20;-0.38;81.10
66594;DHT22;53450;42.584;23.366;2023-02-15T17:39:06;-0.36;81.37
66594;DHT22;53450;42.584;23.366;2023-02-15T17:41:43;-0.50;81.61
66594;DHT22;53450;42.584;23.366;2023-02-15T17:44:09;-0.43;81.70
66594;DHT22;53450;42.584;23.366;2023-02-15T17:46:39;-0.38;80.89
66594;DHT22;53450;42.584;23.366;2023-02-15T17:49:05;-0.47;80.93
66594;DHT22;53450;42.584;23.366;2023-02-15T17:51:31;-0.51;81.11
66594;DHT22;53450;42.584;23.366;2023-02-15T17:53:59;-0.61;81.22
66594;DHT22;53450;42.584;23.366;2023-02-15T17:56:43;-0.71;81.49
66594;DHT22;53450;42.584;23.366;2023-02-15T17:59:09;-0.75;81.95
66594;DHT22;53450;42.584;23.366;2023-02-15T18:01:42;-0.88;82.03
66594;DHT22;53450;42.584;23.366;2023-02-15T18:04:28;-0.91;82.54
66594;DHT22;53450;42.584;23.366;2023-02-15T18:07:15;-0.93;82.80
66594;DHT22;53450;42.584;23.366;2023-02-15T18:10:02;-0.98;82.76
66594;DHT22;53450;42.584;23.366;2023-02-15T18:12:46;-0.91;82.72
66594;DHT22;53450;42.584;23.366;2023-02-15T18:15:11;-0.91;82.15
66594;DHT22;53450;42.584;23.366;2023-02-15T18:17:39;-0.93;81.99
66594;DHT22;53450;42.584;23.366;2023-02-15T18:20:17;-0.92;81.87
66594;DHT22;53450;42.584;23.366;2023-02-15T18:22:44;-0.95;82.10
66594;DHT22;53450;42.584;23.366;2023-02-15T18:25:16;-0.96;81.75
66594;DHT22;53450;42.584;23.366;2023-02-15T18:27:42;-0.95;81.75
66594;DHT22;53450;42.584;23.366;2023-02-15T18:30:13;-1.02;82.21
66594;DHT22;53450;42.584;23.366;2023-02-15T18:32:39;-1.13;82.28
66594;DHT22;53450;42.584;23.366;2023-02-15T18:35:06;-1.29;82.93
66594;DHT22;53450;42.584;23.366;2023-02-15T18:37:32;-1.40;83.28
66594;DHT22;53450;42.584;23.366;2023-02-15T18:39:59;-1.47;83.48
66594;DHT22;53450;42.584;23.366;2023-02-15T18:42:27;-1.50;83.70
66594;DHT22;53450;42.584;23.366;2023-02-15T18:44:57;-1.53;83.81